createdAt,value
2023-02-12T00:00:15.768Z,2.19
2023-02-12T00:05:16.582Z,2.10
2023-02-12T00:10:15.430Z,2.25
2023-02-12T00:15:15.552Z,2.05
2023-02-12T00:20:14.565Z,2.14
2023-02-12T00:25:14.083Z,1.87
2023-02-12T00:30:13.752Z,1.98
2023-02-12T00:35:14.212Z,1.75
2023-02-12T00:40:13.798Z,1.52
2023-02-12T00:45:12.588Z,1.60
2023-02-12T00:50:13.543Z,1.43
2023-02-12T00:55:12.869Z,1.28
2023-02-12T01:00:13.066Z,1.56
2023-02-12T01:05:13.245Z,1.66
2023-02-12T01:10:12.998Z,1.71
2023-02-12T01:15:13.036Z,1.46
2023-02-12T01:20:17.453Z,1.35
2023-02-12T01:25:18.734Z,1.61
2023-02-12T01:30:22.240Z,1.58
2023-02-12T01:35:24.324Z,1.84
2023-02-12T01:40:23.016Z,1.58
2023-02-12T01:45:53.688Z,1.54
2023-02-12T01:50:56.074Z,1.23
2023-02-12T01:55:58.514Z,1.16
2023-02-12T02:00:57.759Z,1.39
2023-02-12T02:06:03.941Z,1.20
2023-02-12T02:11:23.993Z,1.42
2023-02-12T02:16:27.349Z,1.29
2023-02-12T02:21:48.789Z,1.48
2023-02-12T02:27:20.121Z,1.36
2023-02-12T02:32:25.651Z,1.27
2023-02-12T02:37:31.403Z,1.02
2023-02-12T02:42:36.225Z,1.22
2023-02-12T02:47:42.728Z,1.46
2023-02-12T02:52:46.449Z,1.51
2023-02-12T02:57:49.851Z,1.48
2023-02-12T03:02:53.924Z,1.42
2023-02-12T03:07:56.270Z,1.77
2023-02-12T03:12:58.869Z,1.59
2023-02-12T03:18:01.120Z,1.83
2023-02-12T03:23:05.675Z,1.76
2023-02-12T03:28:08.288Z,1.37
2023-02-12T03:33:19.682Z,1.70
2023-02-12T03:38:29.112Z,1.98
2023-02-12T03:43:34.745Z,2.03
2023-02-12T03:48:42.611Z,2.14
2023-02-12T03:53:42.787Z,2.19
2023-02-12T03:58:43.722Z,2.13
2023-02-12T04:03:43.873Z,2.25
2023-02-12T04:08:42.709Z,2.35
2023-02-12T04:13:47.432Z,2.31
2023-02-12T04:18:49.709Z,2.42
2023-02-12T04:23:56.070Z,2.30
2023-02-12T04:29:06.694Z,2.29
2023-02-12T04:34:13.716Z,2.15
2023-02-12T04:39:17.952Z,1.81
2023-02-12T04:44:19.059Z,1.95
2023-02-12T04:49:21.667Z,2.07
2023-02-12T04:54:22.186Z,2.18
2023-02-12T04:59:20.967Z,2.15
2023-02-12T05:04:21.219Z,1.80
2023-02-12T05:09:21.763Z,2.08
2023-02-12T05:14:20.586Z,1.81
2023-02-12T05:19:20.744Z,1.73
2023-02-12T05:24:19.691Z,2.14
2023-02-12T05:29:21.998Z,2.28
2023-02-12T05:34:22.327Z,2.33
2023-02-12T05:39:21.178Z,2.30
2023-02-12T05:44:19.917Z,2.46
2023-02-12T05:49:18.752Z,2.36
2023-02-12T05:54:18.918Z,2.39
2023-02-12T05:59:20.114Z,2.55
2023-02-12T06:04:20.869Z,2.54
2023-02-12T06:09:21.611Z,2.47
2023-02-12T06:14:21.658Z,2.44
2023-02-12T06:19:22.201Z,2.51
2023-02-12T06:24:24.844Z,2.69
2023-02-12T06:29:24.288Z,2.83
2023-02-12T06:34:23.125Z,2.79
2023-02-12T06:39:23.291Z,2.90
2023-02-12T06:44:22.134Z,2.78
2023-02-12T06:49:20.994Z,2.97
2023-02-12T06:54:20.084Z,2.88
2023-02-12T06:59:21.265Z,2.92
2023-02-12T07:04:20.199Z,2.74
2023-02-12T07:09:18.999Z,3.22
2023-02-12T07:14:19.525Z,3.48
2023-02-12T07:19:18.413Z,3.24
2023-02-12T07:24:18.288Z,3.20
2023-02-12T07:29:17.294Z,3.22
2023-02-12T07:34:17.549Z,3.15
2023-02-12T07:39:16.299Z,3.18
2023-02-12T07:44:15.126Z,3.04
2023-02-12T07:49:15.543Z,3.06
2023-02-12T07:54:16.484Z,3.20
2023-02-12T07:59:17.656Z,3.45
2023-02-12T08:04:18.439Z,3.75
2023-02-12T08:09:21.089Z,3.91
2023-02-12T08:14:22.790Z,4.01
2023-02-12T08:19:25.801Z,3.67
2023-02-12T08:24:26.975Z,3.76
2023-02-12T08:29:27.911Z,3.66
2023-02-12T08:34:28.204Z,3.84
2023-02-12T08:39:30.790Z,3.68
2023-02-12T08:44:29.967Z,3.60
2023-02-12T08:49:31.574Z,3.77
2023-02-12T08:54:32.834Z,3.90
2023-02-12T08:59:32.117Z,4.41
2023-02-12T09:04:31.441Z,4.65
2023-02-12T09:09:31.744Z,4.55
2023-02-12T09:14:30.521Z,4.56
2023-02-12T09:19:29.348Z,4.72
2023-02-12T09:24:28.562Z,4.53
2023-02-12T09:29:28.842Z,4.71
2023-02-12T09:34:27.878Z,4.70
2023-02-12T09:39:29.029Z,4.57
2023-02-12T09:44:38.495Z,4.54
2023-02-12T09:49:51.215Z,4.51
2023-02-12T09:54:50.967Z,4.21
2023-02-12T09:59:56.720Z,4.02
2023-02-12T10:05:01.723Z,3.96
2023-02-12T10:10:13.583Z,3.94
2023-02-12T10:15:29.099Z,4.16
2023-02-12T10:20:55.323Z,4.07
2023-02-12T10:25:56.841Z,4.12
2023-02-12T10:31:01.102Z,3.89
2023-02-12T10:36:06.389Z,4.27
2023-02-12T10:41:05.422Z,4.42
2023-02-12T10:46:06.340Z,4.10
2023-02-12T10:51:21.993Z,4.54
2023-02-12T10:56:27.724Z,4.61
2023-02-12T11:01:30.594Z,4.55
2023-02-12T11:06:31.675Z,4.51
2023-02-12T11:11:32.512Z,4.55
2023-02-12T11:16:35.494Z,4.44
2023-02-12T11:21:35.851Z,4.59
2023-02-12T11:26:34.792Z,4.44
2023-02-12T11:31:39.326Z,4.65
2023-02-12T11:36:40.247Z,4.60
2023-02-12T11:41:41.773Z,4.42
2023-02-12T11:46:48.729Z,4.83
2023-02-12T11:51:49.404Z,5.08
2023-02-12T11:56:48.988Z,5.05
2023-02-12T12:01:51.942Z,5.27
2023-02-12T12:06:57.735Z,5.52
2023-02-12T12:12:04.208Z,5.27
2023-02-12T12:17:27.383Z,5.51
2023-02-12T12:22:40.838Z,5.77
2023-02-12T12:28:06.544Z,5.69
2023-02-12T12:33:14.998Z,5.93
2023-02-12T12:38:25.460Z,6.06
2023-02-12T12:43:33.245Z,5.92
2023-02-12T12:48:54.248Z,6.20
2023-02-12T12:54:04.840Z,6.09
2023-02-12T12:59:45.580Z,6.09
2023-02-12T13:05:26.220Z,6.13
2023-02-12T13:10:34.962Z,6.25
2023-02-12T13:15:41.399Z,6.44
2023-02-12T13:20:52.685Z,6.37
2023-02-12T13:26:01.177Z,6.32
2023-02-12T13:31:03.695Z,6.29
2023-02-12T13:36:08.108Z,6.23
2023-02-12T13:41:09.418Z,6.17
2023-02-12T13:46:15.910Z,6.16
2023-02-12T13:51:28.174Z,6.09
2023-02-12T13:56:36.139Z,5.86
2023-02-12T14:01:47.605Z,5.98
2023-02-12T14:07:00.708Z,5.68
2023-02-12T14:12:01.496Z,5.72
2023-02-12T14:17:38.704Z,5.84
2023-02-12T14:23:19.787Z,6.21
2023-02-12T14:28:27.533Z,6.32
2023-02-12T14:33:28.353Z,6.77
2023-02-12T14:39:02.746Z,7.60
2023-02-12T14:44:44.657Z,8.25
2023-02-12T14:49:48.687Z,8.42
2023-02-12T14:54:50.979Z,8.89
2023-02-12T14:59:51.161Z,9.28
2023-02-12T15:04:54.311Z,9.57
2023-02-12T15:10:00.677Z,9.46
2023-02-12T15:15:07.413Z,9.55
2023-02-12T15:20:15.100Z,9.52
2023-02-12T15:25:18.979Z,9.21
2023-02-12T15:30:26.305Z,9.12
2023-02-12T15:35:29.761Z,8.87
2023-02-12T15:40:29.665Z,8.52
2023-02-12T15:45:30.309Z,8.16
2023-02-12T15:50:32.720Z,7.94
2023-02-12T15:55:40.883Z,7.73
2023-02-12T16:00:44.107Z,7.45
2023-02-12T16:05:45.278Z,7.11
2023-02-12T16:10:47.596Z,6.89
2023-02-12T16:15:46.427Z,6.70
2023-02-12T16:20:47.869Z,6.51
2023-02-12T16:25:56.023Z,6.32
2023-02-12T16:31:07.655Z,6.04
2023-02-12T16:36:14.393Z,5.78
2023-02-12T16:41:23.758Z,5.74
2023-02-12T16:46:23.074Z,5.66
2023-02-12T16:51:26.153Z,5.49
2023-02-12T16:56:26.617Z,5.52
2023-02-12T17:01:28.496Z,5.54
2023-02-12T17:06:30.907Z,5.55
2023-02-12T17:11:30.223Z,5.53
2023-02-12T17:16:31.201Z,5.53
2023-02-12T17:21:38.074Z,5.56
2023-02-12T17:26:36.989Z,5.58
2023-02-12T17:31:36.829Z,5.59
2023-02-12T17:36:37.340Z,5.58
2023-02-12T17:41:37.200Z,5.61
2023-02-12T17:46:36.075Z,5.63
2023-02-12T17:51:36.195Z,5.64
2023-02-12T17:56:34.999Z,5.63
2023-02-12T18:01:34.757Z,5.64
2023-02-12T18:06:33.742Z,5.65
2023-02-12T18:11:34.240Z,5.66
2023-02-12T18:16:35.293Z,5.66
2023-02-12T18:21:35.181Z,5.66
2023-02-12T18:26:35.495Z,5.64
2023-02-12T18:31:35.370Z,5.63
2023-02-12T18:36:34.911Z,5.62
2023-02-12T18:41:36.055Z,5.61
2023-02-12T18:46:34.951Z,5.59
2023-02-12T18:51:37.349Z,5.60
2023-02-12T18:56:41.059Z,5.62
2023-02-12T19:01:39.780Z,5.79
2023-02-12T19:06:41.934Z,5.62
2023-02-12T19:11:42.070Z,5.63
2023-02-12T19:16:41.567Z,5.63
2023-02-12T19:21:40.796Z,5.59
2023-02-12T19:26:40.023Z,5.58
2023-02-12T19:31:58.920Z,5.59
2023-02-12T19:36:58.136Z,5.57
2023-02-12T19:41:57.314Z,5.46
2023-02-12T19:46:59.701Z,5.34
2023-02-12T19:51:59.042Z,5.37
2023-02-12T19:56:58.368Z,5.41
2023-02-12T20:01:59.561Z,5.43
2023-02-12T20:06:59.125Z,5.43
2023-02-12T20:11:58.398Z,5.25
2023-02-12T20:17:02.598Z,5.21
2023-02-12T20:22:04.812Z,5.24
2023-02-12T20:27:06.517Z,5.25
2023-02-12T20:32:08.589Z,5.19
2023-02-12T20:37:08.640Z,5.11
2023-02-12T20:42:09.158Z,5.05
2023-02-12T20:47:11.148Z,4.97
2023-02-12T20:52:11.438Z,4.88
2023-02-12T20:57:13.154Z,4.80
2023-02-12T21:02:13.541Z,4.72
2023-02-12T21:07:12.356Z,4.65
2023-02-12T21:12:20.581Z,4.57
2023-02-12T21:17:22.170Z,4.50
2023-02-12T21:22:21.563Z,4.43
2023-02-12T21:27:20.528Z,4.35
2023-02-12T21:32:20.827Z,4.25
2023-02-12T21:37:19.806Z,4.20
2023-02-12T21:42:18.551Z,4.13
2023-02-12T21:47:17.381Z,4.08
2023-02-12T21:52:17.482Z,4.03
2023-02-12T21:57:19.931Z,4.00
2023-02-12T22:02:18.822Z,3.95
2023-02-12T22:07:21.007Z,3.90
2023-02-12T22:12:19.809Z,3.86
2023-02-12T22:17:18.582Z,3.84
2023-02-12T22:22:18.841Z,3.81
2023-02-12T22:27:17.597Z,3.79
2023-02-12T22:32:16.430Z,3.77
2023-02-12T22:37:15.306Z,3.75
2023-02-12T22:42:15.437Z,3.71
2023-02-12T22:47:25.873Z,3.68
2023-02-12T22:52:26.050Z,3.63
2023-02-12T22:57:28.167Z,3.60
2023-02-12T23:02:26.942Z,3.57
2023-02-12T23:07:27.819Z,3.55
2023-02-12T23:12:27.954Z,3.49
2023-02-12T23:17:26.762Z,3.41
2023-02-12T23:22:25.582Z,3.38
2023-02-12T23:27:24.426Z,3.31
2023-02-12T23:32:24.671Z,3.26
2023-02-12T23:37:23.740Z,3.26
2023-02-12T23:42:22.586Z,3.23
2023-02-12T23:47:21.297Z,3.17
2023-02-12T23:52:21.405Z,3.19
2023-02-12T23:57:20.305Z,3.24
